createdAt,value
2019-03-15T00:02:18.556Z,9.03
2019-03-15T00:07:21.241Z,9.07
2019-03-15T00:12:23.957Z,8.89
2019-03-15T00:17:26.647Z,8.78
2019-03-15T00:22:29.393Z,8.74
2019-03-15T00:27:32.113Z,8.72
2019-03-15T00:32:34.891Z,8.68
2019-03-15T00:37:37.615Z,8.68
2019-03-15T00:42:40.490Z,8.60
2019-03-15T00:47:43.229Z,8.62
2019-03-15T00:52:46.021Z,8.61
2019-03-15T00:57:48.707Z,8.73
2019-03-15T01:02:51.413Z,8.73
2019-03-15T01:07:54.207Z,8.68
2019-03-15T01:12:56.938Z,8.78
2019-03-15T01:17:59.627Z,8.84
2019-03-15T01:23:02.327Z,8.99
2019-03-15T01:28:06.623Z,9.12
2019-03-15T01:33:09.366Z,9.19
2019-03-15T01:38:12.057Z,9.20
2019-03-15T01:43:14.805Z,9.33
2019-03-15T01:48:17.547Z,9.36
2019-03-15T01:53:20.300Z,9.44
2019-03-15T01:58:23.012Z,9.60
2019-03-15T02:03:25.715Z,9.59
2019-03-15T02:08:28.418Z,9.70
2019-03-15T02:13:31.120Z,9.65
2019-03-15T02:18:33.844Z,9.57
2019-03-15T02:23:36.557Z,9.59
2019-03-15T02:28:39.262Z,9.59
2019-03-15T02:33:41.952Z,9.54
2019-03-15T02:38:44.673Z,9.61
2019-03-15T02:43:47.416Z,9.58
2019-03-15T02:48:50.094Z,9.51
2019-03-15T02:53:52.800Z,9.43
2019-03-15T02:58:55.518Z,9.38
2019-03-15T03:03:58.248Z,9.41
2019-03-15T03:09:00.949Z,9.38
2019-03-15T03:14:04.288Z,9.39
2019-03-15T03:19:07.170Z,9.40
2019-03-15T03:24:09.889Z,9.27
2019-03-15T03:29:12.583Z,9.26
2019-03-15T03:34:15.299Z,9.23
2019-03-15T03:39:18.007Z,9.28
2019-03-15T03:44:20.725Z,9.38
2019-03-15T03:49:23.449Z,9.39
2019-03-15T03:54:26.660Z,9.42
2019-03-15T03:59:29.618Z,9.47
2019-03-15T04:04:32.422Z,9.49
2019-03-15T04:09:35.357Z,9.48
2019-03-15T04:14:38.161Z,9.48
2019-03-15T04:19:41.868Z,9.43
2019-03-15T04:24:44.602Z,9.33
2019-03-15T04:29:47.353Z,9.29
2019-03-15T04:34:50.043Z,9.24
2019-03-15T04:39:52.765Z,9.16
2019-03-15T04:44:55.549Z,9.17
2019-03-15T04:49:58.243Z,9.28
2019-03-15T04:55:00.941Z,9.31
2019-03-15T05:00:04.710Z,9.28
2019-03-15T05:05:07.436Z,9.26
2019-03-15T05:10:10.131Z,9.25
2019-03-15T05:15:12.834Z,9.25
2019-03-15T05:20:15.551Z,9.23
2019-03-15T05:25:18.259Z,9.33
2019-03-15T05:30:20.962Z,9.35
2019-03-15T05:35:23.685Z,9.37
2019-03-15T05:40:26.413Z,9.40
2019-03-15T05:45:29.132Z,9.27
2019-03-15T05:50:31.825Z,9.30
2019-03-15T05:55:34.538Z,9.28
2019-03-15T06:00:37.251Z,9.35
2019-03-15T06:05:39.956Z,9.32
2019-03-15T06:10:42.688Z,9.32
2019-03-15T06:15:45.402Z,9.36
2019-03-15T06:20:48.107Z,9.53
2019-03-15T06:25:50.914Z,9.54
2019-03-15T06:30:53.617Z,9.64
2019-03-15T06:35:56.326Z,9.74
2019-03-15T06:40:59.194Z,9.88
2019-03-15T06:46:02.768Z,10.08
2019-03-15T06:51:05.465Z,10.06
2019-03-15T06:56:08.183Z,10.07
2019-03-15T07:01:10.898Z,10.26
2019-03-15T07:06:14.404Z,10.40
2019-03-15T07:11:17.304Z,10.36
2019-03-15T07:16:20.027Z,10.45
2019-03-15T07:21:22.735Z,10.48
2019-03-15T07:26:25.485Z,10.46
2019-03-15T07:31:28.201Z,10.43
2019-03-15T07:36:30.904Z,10.40
2019-03-15T07:41:33.603Z,10.45
2019-03-15T07:46:36.324Z,10.45
2019-03-15T07:51:39.030Z,10.50
2019-03-15T07:56:41.732Z,10.54
2019-03-15T08:01:44.430Z,10.49
2019-03-15T08:06:47.158Z,10.46
2019-03-15T08:11:49.946Z,10.35
2019-03-15T08:16:52.669Z,10.47
2019-03-15T08:21:56.710Z,10.61
2019-03-15T08:26:59.612Z,10.72
2019-03-15T08:32:02.318Z,10.82
2019-03-15T08:37:05.133Z,10.96
2019-03-15T08:42:07.830Z,11.00
2019-03-15T08:47:10.593Z,11.26
2019-03-15T08:52:13.385Z,11.01
2019-03-15T08:57:16.148Z,11.08
2019-03-15T09:02:18.847Z,11.16
2019-03-15T09:07:21.545Z,11.29
2019-03-15T09:12:24.265Z,11.36
2019-03-15T09:17:26.972Z,11.45
2019-03-15T09:22:29.712Z,11.55
2019-03-15T09:27:32.431Z,11.62
2019-03-15T09:32:35.123Z,11.63
2019-03-15T09:37:37.837Z,11.55
2019-03-15T09:42:40.554Z,11.64
2019-03-15T09:47:43.376Z,11.43
2019-03-15T09:52:46.135Z,11.42
2019-03-15T09:57:48.856Z,11.40
2019-03-15T10:02:51.571Z,11.35
2019-03-15T10:07:54.288Z,11.24
2019-03-15T10:13:05.974Z,11.17
2019-03-15T10:18:01.616Z,11.25
2019-03-15T10:23:06.243Z,11.32
2019-03-15T10:28:09.014Z,11.29
2019-03-15T10:33:11.742Z,11.52
2019-03-15T10:38:16.693Z,11.54
2019-03-15T10:43:19.076Z,11.51
2019-03-15T10:48:25.362Z,11.47
2019-03-15T10:53:26.407Z,11.42
2019-03-15T10:58:29.108Z,11.65
2019-03-15T11:03:31.829Z,11.49
2019-03-15T11:08:34.547Z,11.70
2019-03-15T11:13:37.246Z,11.59
2019-03-15T11:18:39.956Z,11.76
2019-03-15T11:23:42.669Z,11.86
2019-03-15T11:28:45.364Z,12.13
2019-03-15T11:33:48.106Z,12.25
2019-03-15T11:38:50.801Z,12.35
2019-03-15T11:43:53.532Z,12.25
2019-03-15T11:48:56.289Z,12.22
2019-03-15T11:53:59.033Z,12.13
2019-03-15T11:59:01.740Z,12.40
2019-03-15T12:04:04.446Z,12.28
2019-03-15T12:09:07.646Z,12.31
2019-03-15T12:14:10.356Z,12.38
2019-03-15T12:19:13.089Z,12.56
2019-03-15T12:24:15.786Z,12.92
2019-03-15T12:29:18.494Z,13.19
2019-03-15T12:34:21.205Z,13.49
2019-03-15T12:39:23.927Z,13.79
2019-03-15T12:44:26.627Z,13.94
2019-03-15T12:49:29.325Z,14.19
2019-03-15T12:54:32.052Z,14.58
2019-03-15T12:59:34.751Z,15.15
2019-03-15T13:04:37.455Z,15.28
2019-03-15T13:09:40.155Z,15.42
2019-03-15T13:14:42.883Z,15.52
2019-03-15T13:19:55.132Z,15.26
2019-03-15T13:24:50.214Z,14.80
2019-03-15T13:29:52.987Z,14.11
2019-03-15T13:34:55.707Z,14.24
2019-03-15T13:39:58.407Z,14.42
2019-03-15T13:45:01.125Z,14.42
2019-03-15T13:50:04.306Z,14.59
2019-03-15T13:55:07.142Z,14.73
2019-03-15T14:00:10.769Z,14.90
2019-03-15T14:05:13.579Z,14.90
2019-03-15T14:10:16.411Z,15.02
2019-03-15T14:15:19.139Z,15.27
2019-03-15T14:20:21.853Z,15.29
2019-03-15T14:25:24.652Z,15.36
2019-03-15T14:30:27.558Z,15.41
2019-03-15T14:35:30.280Z,15.61
2019-03-15T14:40:32.999Z,15.50
2019-03-15T14:45:35.822Z,15.37
2019-03-15T14:50:38.707Z,15.36
2019-03-15T14:55:41.430Z,15.05
2019-03-15T15:00:44.216Z,14.99
2019-03-15T15:05:47.605Z,14.92
2019-03-15T15:10:50.646Z,14.79
2019-03-15T15:16:02.684Z,14.77
2019-03-15T15:21:07.879Z,14.76
2019-03-15T15:26:12.127Z,14.73
2019-03-15T15:31:15.986Z,14.76
2019-03-15T15:36:19.881Z,14.74
2019-03-15T15:41:23.775Z,14.80
2019-03-15T15:46:27.613Z,14.66
2019-03-15T15:51:31.778Z,14.62
2019-03-15T15:56:35.554Z,14.69
2019-03-15T16:01:38.307Z,14.66
2019-03-15T16:06:41.076Z,14.47
2019-03-15T16:11:43.784Z,14.44
2019-03-15T16:16:46.646Z,14.27
2019-03-15T16:21:49.420Z,14.36
2019-03-15T16:26:52.151Z,14.17
2019-03-15T16:31:54.958Z,14.05
2019-03-15T16:36:57.668Z,13.97
2019-03-15T16:42:00.735Z,13.79
2019-03-15T16:47:03.464Z,13.73
2019-03-15T16:52:06.239Z,13.84
2019-03-15T16:57:09.002Z,13.77
2019-03-15T17:02:11.743Z,13.67
2019-03-15T17:07:14.481Z,13.59
2019-03-15T17:12:17.328Z,13.39
2019-03-15T17:17:20.059Z,13.07
2019-03-15T17:22:22.791Z,12.93
2019-03-15T17:27:25.506Z,12.90
2019-03-15T17:32:28.251Z,12.68
2019-03-15T17:37:31.003Z,12.51
2019-03-15T17:42:33.749Z,12.34
2019-03-15T17:47:36.552Z,12.29
2019-03-15T17:52:39.379Z,12.18
2019-03-15T17:57:45.457Z,12.10
2019-03-15T18:02:46.784Z,12.11
2019-03-15T18:07:49.499Z,12.13
2019-03-15T18:12:52.212Z,12.07
2019-03-15T18:17:54.921Z,12.01
2019-03-15T18:22:57.640Z,11.90
2019-03-15T18:28:00.353Z,11.76
2019-03-15T18:33:03.156Z,11.64
2019-03-15T18:38:05.862Z,11.59
2019-03-15T18:43:08.575Z,11.52
2019-03-15T18:48:13.032Z,11.40
2019-03-15T18:53:15.954Z,11.41
2019-03-15T18:58:18.709Z,11.34
2019-03-15T19:03:21.453Z,11.28
2019-03-15T19:08:24.167Z,11.27
2019-03-15T19:13:26.880Z,11.07
2019-03-15T19:18:29.601Z,11.09
2019-03-15T19:23:33.630Z,10.98
2019-03-15T19:28:36.554Z,10.97
2019-03-15T19:33:39.270Z,10.92
2019-03-15T19:38:42.018Z,10.86
2019-03-15T19:43:44.791Z,10.78
2019-03-15T19:48:47.532Z,10.83
2019-03-15T19:53:50.393Z,10.79
2019-03-15T19:58:53.957Z,10.69
2019-03-15T20:03:56.673Z,10.61
2019-03-15T20:08:59.406Z,10.67
2019-03-15T20:14:02.229Z,10.59
2019-03-15T20:19:04.968Z,10.63
2019-03-15T20:24:07.669Z,10.52
2019-03-15T20:29:10.368Z,10.48
2019-03-15T20:34:13.061Z,10.45
2019-03-15T20:39:15.751Z,10.37
2019-03-15T20:44:28.420Z,10.41
2019-03-15T20:49:23.308Z,10.31
2019-03-15T20:54:26.042Z,10.31
2019-03-15T20:59:28.758Z,10.20
2019-03-15T21:04:31.466Z,10.20
2019-03-15T21:09:34.167Z,10.15
2019-03-15T21:14:36.886Z,10.15
2019-03-15T21:19:39.620Z,10.10
2019-03-15T21:24:42.333Z,10.12
2019-03-15T21:29:45.050Z,10.08
2019-03-15T21:34:47.758Z,10.03
2019-03-15T21:39:50.509Z,10.07
2019-03-15T21:44:53.192Z,10.07
2019-03-15T21:49:55.933Z,10.13
2019-03-15T21:54:58.674Z,10.03
2019-03-15T22:00:01.396Z,10.10
2019-03-15T22:05:04.597Z,10.02
2019-03-15T22:10:08.626Z,9.97
2019-03-15T22:15:11.556Z,9.94
2019-03-15T22:20:14.294Z,9.92
2019-03-15T22:25:17.000Z,9.84
2019-03-15T22:30:21.847Z,9.87
2019-03-15T22:35:24.567Z,9.89
2019-03-15T22:40:27.312Z,10.10
2019-03-15T22:45:30.101Z,10.28
2019-03-15T22:50:32.817Z,10.24
2019-03-15T22:55:35.553Z,10.28
2019-03-15T23:00:38.977Z,10.29
2019-03-15T23:05:41.697Z,10.26
2019-03-15T23:10:47.028Z,10.18
2019-03-15T23:15:49.065Z,10.15
2019-03-15T23:20:51.772Z,10.01
2019-03-15T23:25:54.468Z,9.96
2019-03-15T23:30:57.196Z,9.98
2019-03-15T23:35:59.936Z,9.87
2019-03-15T23:41:02.663Z,9.89
2019-03-15T23:46:05.373Z,9.86
2019-03-15T23:51:08.157Z,9.95
2019-03-15T23:56:10.883Z,9.88
